Time;durP1;ratioP1;P1;durP2;ratioP2;P2;SDS_P1;SDS_P2;PMS_P1;PMS_P2;Temp;Humidity;BMP_temperature;BMP_pressure;BME280_temperature;BME280_humidity;BME280_pressure;Samples;Min_cycle;Max_cycle;Signal;HPM_P1;HPM_P2
2024/01/01 00:01:58;;;;;;;0.20;0.20;;;;;;;;;;4958952;28;20181;-88
2024/01/01 00:04:26;;;;;;;0.20;0.20;;;;;;;;;;4961848;28;20136;-88
2024/01/01 00:06:52;;;;;;;0.20;0.20;;;;;;;;;;4979126;28;20121;-88
2024/01/01 00:09:18;;;;;;;0.20;0.20;;;;;;;;;;4978844;28;20136;-88
2024/01/01 00:11:47;;;;;;;0.50;0.50;;;;;;;;;;4979270;28;20034;-88
2024/01/01 00:14:13;;;;;;;2.72;0.73;;;;;;;;;;4963079;28;20200;-88
2024/01/01 00:16:39;;;;;;;0.10;0.10;;;;;;;;;;4978714;28;20049;-88
2024/01/01 00:19:05;;;;;;;0.85;0.85;;;;;;;;;;4962592;28;20537;-88
2024/01/01 00:21:31;;;;;;;0.40;0.40;;;;;;;;;;4962395;28;20530;-88
2024/01/01 00:23:57;;;;;;;0.10;0.10;;;;;;;;;;4962742;28;20046;-87
2024/01/01 00:26:23;;;;;;;0.40;0.40;;;;;;;;;;4962882;28;20049;-88
2024/01/01 00:28:49;;;;;;;0.20;0.20;;;;;;;;;;4962643;28;20130;-88
2024/01/01 00:31:15;;;;;;;0.28;0.28;;;;;;;;;;4978197;28;20521;-89
2024/01/01 00:33:41;;;;;;;0.35;0.35;;;;;;;;;;4962438;28;20053;-89
2024/01/01 00:36:07;;;;;;;0.63;0.63;;;;;;;;;;4962578;28;20042;-88
2024/01/01 00:38:33;;;;;;;0.25;0.25;;;;;;;;;;4962321;28;20097;-88
2024/01/01 00:40:59;;;;;;;0.20;0.20;;;;;;;;;;4963734;28;20069;-88
2024/01/01 00:43:25;;;;;;;0.93;0.70;;;;;;;;;;4962443;28;20133;-88
2024/01/01 00:45:51;;;;;;;0.20;0.20;;;;;;;;;;4978615;28;20057;-88
2024/01/01 00:48:17;;;;;;;0.30;0.30;;;;;;;;;;4978237;28;20042;-88
2024/01/01 00:50:46;;;;;;;0.13;0.13;;;;;;;;;;4978128;28;20046;-88
2024/01/01 00:53:12;;;;;;;0.35;0.20;;;;;;;;;;4962288;28;20042;-89
2024/01/01 00:55:38;;;;;;;0.30;0.30;;;;;;;;;;4961931;28;20049;-88
2024/01/01 00:58:06;;;;;;;0.20;0.20;;;;;;;;;;4978281;28;20117;-88
2024/01/01 01:00:32;;;;;;;0.20;0.20;;;;;;;;;;4978038;28;20062;-88
2024/01/01 01:02:58;;;;;;;1.02;0.63;;;;;;;;;;4978285;28;20070;-89
2024/01/01 01:05:24;;;;;;;0.43;0.43;;;;;;;;;;4961915;28;20074;-87
2024/01/01 01:07:50;;;;;;;0.52;0.52;;;;;;;;;;4961705;28;20133;-88
2024/01/01 01:10:16;;;;;;;0.88;0.57;;;;;;;;;;4977797;28;20053;-87
2024/01/01 01:12:42;;;;;;;1.42;0.55;;;;;;;;;;4977796;28;20047;-88
2024/01/01 01:15:09;;;;;;;0.43;0.43;;;;;;;;;;4977663;28;20038;-88
2024/01/01 01:17:35;;;;;;;2.08;0.60;;;;;;;;;;4977614;28;20038;-88
2024/01/01 01:20:01;;;;;;;0.38;0.38;;;;;;;;;;4977868;28;20034;-89
2024/01/01 01:22:27;;;;;;;0.65;0.65;;;;;;;;;;4961837;28;20108;-88
2024/01/01 01:24:53;;;;;;;0.40;0.40;;;;;;;;;;4977583;28;20490;-87
2024/01/01 01:27:19;;;;;;;0.20;0.20;;;;;;;;;;4993673;28;20038;-87
2024/01/01 01:29:45;;;;;;;0.47;0.35;;;;;;;;;;4977417;28;20042;-87
2024/01/01 01:32:11;;;;;;;0.30;0.30;;;;;;;;;;4977134;28;20504;-87
2024/01/01 01:34:37;;;;;;;0.43;0.43;;;;;;;;;;4994024;28;20422;-88
2024/01/01 01:37:03;;;;;;;0.20;0.20;;;;;;;;;;4961561;28;20366;-88
2024/01/01 01:39:29;;;;;;;0.40;0.40;;;;;;;;;;4977277;28;20042;-87
2024/01/01 01:41:55;;;;;;;0.32;0.32;;;;;;;;;;4977462;28;20042;-88
2024/01/01 01:44:21;;;;;;;0.30;0.30;;;;;;;;;;4977551;28;20383;-87
2024/01/01 01:46:47;;;;;;;0.30;0.30;;;;;;;;;;4961249;28;20046;-89
2024/01/01 01:49:13;;;;;;;0.43;0.43;;;;;;;;;;4961123;28;20038;-88
2024/01/01 01:51:39;;;;;;;1.13;0.68;;;;;;;;;;4961213;28;20074;-88
2024/01/01 01:54:05;;;;;;;0.45;0.40;;;;;;;;;;4960823;28;20035;-87
2024/01/01 01:56:31;;;;;;;0.35;0.35;;;;;;;;;;4993101;28;20512;-87
2024/01/01 01:58:57;;;;;;;0.10;0.10;;;;;;;;;;4977035;28;20042;-88
2024/01/01 02:01:23;;;;;;;0.20;0.20;;;;;;;;;;4960653;28;20092;-87
2024/01/01 02:03:49;;;;;;;0.73;0.73;;;;;;;;;;4976776;28;20436;-88
2024/01/01 02:06:15;;;;;;;0.10;0.10;;;;;;;;;;4960650;28;20104;-87
2024/01/01 02:08:41;;;;;;;0.20;0.20;;;;;;;;;;4960770;28;20497;-87
2024/01/01 02:11:07;;;;;;;0.20;0.20;;;;;;;;;;4960573;28;20038;-87
2024/01/01 02:13:33;;;;;;;0.40;0.40;;;;;;;;;;4960503;28;20046;-88
2024/01/01 02:16:00;;;;;;;0.10;0.10;;;;;;;;;;4960726;28;20038;-88
2024/01/01 02:18:26;;;;;;;0.35;0.35;;;;;;;;;;4992621;28;20042;-87
2024/01/01 02:20:52;;;;;;;0.20;0.20;;;;;;;;;;4960327;28;20044;-87
2024/01/01 02:23:20;;;;;;;0.38;0.20;;;;;;;;;;4976742;28;20129;-87
2024/01/01 02:25:47;;;;;;;1.33;0.32;;;;;;;;;;4976180;28;20050;-88
2024/01/01 02:28:14;;;;;;;0.40;0.40;;;;;;;;;;4976193;28;20439;-87
2024/01/01 02:30:40;;;;;;;0.28;0.28;;;;;;;;;;4959939;28;20086;-88
2024/01/01 02:33:09;;;;;;;0.90;0.90;;;;;;;;;;4976143;28;20093;-87
2024/01/01 02:35:36;;;;;;;1.65;0.52;;;;;;;;;;4960243;28;20042;-87
2024/01/01 02:38:04;;;;;;;0.10;0.10;;;;;;;;;;4976632;28;20061;-87
2024/01/01 02:40:30;;;;;;;1.00;0.45;;;;;;;;;;4992361;28;20512;-88
2024/01/01 02:42:56;;;;;;;0.30;0.30;;;;;;;;;;4959905;28;20050;-88
2024/01/01 02:45:24;;;;;;;0.13;0.13;;;;;;;;;;4976026;28;20085;-88
2024/01/01 02:47:50;;;;;;;0.15;0.15;;;;;;;;;;4976123;28;20390;-88
2024/01/01 02:50:18;;;;;;;0.40;0.40;;;;;;;;;;4976306;28;20402;-88
2024/01/01 02:52:44;;;;;;;0.30;0.30;;;;;;;;;;4960284;28;20185;-88
2024/01/01 02:55:10;;;;;;;0.45;0.45;;;;;;;;;;4975985;28;20174;-88
2024/01/01 02:57:36;;;;;;;0.20;0.20;;;;;;;;;;4959817;28;20293;-87
2024/01/01 03:00:03;;;;;;;0.20;0.20;;;;;;;;;;4975898;28;20044;-88
2024/01/01 03:02:29;;;;;;;0.30;0.30;;;;;;;;;;4976050;28;20053;-87
2024/01/01 03:04:55;;;;;;;0.10;0.10;;;;;;;;;;4959681;28;20532;-87
2024/01/01 03:07:21;;;;;;;0.15;0.15;;;;;;;;;;4975641;28;20082;-87
2024/01/01 03:09:49;;;;;;;0.20;0.20;;;;;;;;;;4959388;28;20050;-87
2024/01/01 03:12:15;;;;;;;0.20;0.20;;;;;;;;;;4975249;28;20490;-87
2024/01/01 03:14:42;;;;;;;0.40;0.40;;;;;;;;;;4959545;28;20494;-87
2024/01/01 03:17:08;;;;;;;0.20;0.20;;;;;;;;;;4959573;28;20081;-86
2024/01/01 03:19:34;;;;;;;0.20;0.20;;;;;;;;;;4975501;28;20091;-87
2024/01/01 03:22:01;;;;;;;0.10;0.10;;;;;;;;;;4975417;28;20089;-87
2024/01/01 03:24:27;;;;;;;0.45;0.45;;;;;;;;;;4975556;28;20394;-87
2024/01/01 03:26:53;;;;;;;0.40;0.40;;;;;;;;;;4959181;28;20034;-87
2024/01/01 03:29:19;;;;;;;0.20;0.20;;;;;;;;;;4975519;28;20042;-87
2024/01/01 03:31:45;;;;;;;0.20;0.20;;;;;;;;;;4958870;28;20486;-87
2024/01/01 03:34:12;;;;;;;0.32;0.32;;;;;;;;;;4991537;28;20070;-87
2024/01/01 03:36:38;;;;;;;0.20;0.20;;;;;;;;;;4975311;28;20129;-86
2024/01/01 03:39:05;;;;;;;0.13;0.13;;;;;;;;;;4978980;28;20062;-86
2024/01/01 03:41:31;;;;;;;0.10;0.10;;;;;;;;;;4979230;28;20034;-86
2024/01/01 03:43:57;;;;;;;0.15;0.15;;;;;;;;;;4979149;28;20049;-86
2024/01/01 03:46:23;;;;;;;0.10;0.10;;;;;;;;;;4963096;28;20038;-87
2024/01/01 03:48:49;;;;;;;0.10;0.10;;;;;;;;;;4979205;28;20054;-88
2024/01/01 03:51:15;;;;;;;0.10;0.10;;;;;;;;;;4963314;28;20049;-87
2024/01/01 03:53:41;;;;;;;0.20;0.20;;;;;;;;;;4978885;28;20485;-87
2024/01/01 03:56:07;;;;;;;0.10;0.10;;;;;;;;;;4979331;28;20434;-87
2024/01/01 03:58:33;;;;;;;0.10;0.10;;;;;;;;;;4963218;28;20101;-87
2024/01/01 04:01:00;;;;;;;0.10;0.10;;;;;;;;;;4978923;28;20038;-87
2024/01/01 04:03:26;;;;;;;0.20;0.20;;;;;;;;;;4994974;28;20074;-87
2024/01/01 04:05:52;;;;;;;0.10;0.10;;;;;;;;;;4962810;28;20511;-87
2024/01/01 04:08:19;;;;;;;0.10;0.10;;;;;;;;;;4978731;28;20042;-86
2024/01/01 04:10:45;;;;;;;0.10;0.10;;;;;;;;;;4962736;28;20042;-85
2024/01/01 04:13:11;;;;;;;0.15;0.15;;;;;;;;;;4962637;28;20038;-86
2024/01/01 04:15:37;;;;;;;0.10;0.10;;;;;;;;;;4962767;28;20501;-86
2024/01/01 04:18:03;;;;;;;0.20;0.20;;;;;;;;;;4978953;28;20046;-87
2024/01/01 04:20:29;;;;;;;0.10;0.10;;;;;;;;;;4978538;28;20323;-86
2024/01/01 04:22:55;;;;;;;0.10;0.10;;;;;;;;;;4978685;28;20050;-86
2024/01/01 04:25:21;;;;;;;0.10;0.10;;;;;;;;;;4994914;28;20053;-86
2024/01/01 04:27:47;;;;;;;0.10;0.10;;;;;;;;;;4978635;28;20046;-87
2024/01/01 04:30:14;;;;;;;0.10;0.10;;;;;;;;;;4963062;28;20525;-90
2024/01/01 04:32:40;;;;;;;0.10;0.10;;;;;;;;;;4963517;28;20132;-91
2024/01/01 04:35:07;;;;;;;0.10;0.10;;;;;;;;;;4979570;28;20398;-89
2024/01/01 04:37:33;;;;;;;0.10;0.10;;;;;;;;;;4978400;28;20112;-87
2024/01/01 04:39:59;;;;;;;0.10;0.10;;;;;;;;;;4978367;28;20046;-88
2024/01/01 04:42:25;;;;;;;0.10;0.10;;;;;;;;;;4962404;28;20133;-88
2024/01/01 04:44:52;;;;;;;0.10;0.10;;;;;;;;;;4978290;28;20068;-88
2024/01/01 04:47:18;;;;;;;0.10;0.10;;;;;;;;;;4962355;28;20046;-88
2024/01/01 04:49:44;;;;;;;0.10;0.10;;;;;;;;;;4977401;28;20125;-88
2024/01/01 04:52:10;;;;;;;0.10;0.10;;;;;;;;;;4962032;28;20129;-87
2024/01/01 04:54:37;;;;;;;0.10;0.10;;;;;;;;;;4978213;28;20459;-87
2024/01/01 04:57:03;;;;;;;0.80;0.80;;;;;;;;;;4962131;28;20054;-87
2024/01/01 04:59:29;;;;;;;0.10;0.10;;;;;;;;;;4977969;28;20046;-87
2024/01/01 05:01:55;;;;;;;0.10;0.10;;;;;;;;;;4962033;28;20038;-86
2024/01/01 05:04:21;;;;;;;0.10;0.10;;;;;;;;;;4978234;28;20221;-85
2024/01/01 05:06:47;;;;;;;0.10;0.10;;;;;;;;;;4977595;28;20522;-87
2024/01/01 05:09:13;;;;;;;0.10;0.10;;;;;;;;;;4961750;28;20042;-87
2024/01/01 05:11:40;;;;;;;0.10;0.10;;;;;;;;;;4961977;28;20049;-87
2024/01/01 05:14:06;;;;;;;0.10;0.10;;;;;;;;;;4977685;28;20104;-86
2024/01/01 05:16:33;;;;;;;0.10;0.10;;;;;;;;;;4961571;28;20042;-86
2024/01/01 05:18:59;;;;;;;0.10;0.10;;;;;;;;;;4961631;28;20034;-87
2024/01/01 05:21:25;;;;;;;0.10;0.10;;;;;;;;;;4977672;28;20561;-87
2024/01/01 05:23:51;;;;;;;0.10;0.10;;;;;;;;;;4961815;28;20342;-87
2024/01/01 05:26:17;;;;;;;0.10;0.10;;;;;;;;;;4977612;28;20038;-88
2024/01/01 05:28:43;;;;;;;0.10;0.10;;;;;;;;;;4961372;28;20202;-87
2024/01/01 05:31:09;;;;;;;0.10;0.10;;;;;;;;;;4961378;28;20225;-86
2024/01/01 05:33:36;;;;;;;0.10;0.10;;;;;;;;;;4977329;28;20673;-86
2024/01/01 05:36:02;;;;;;;0.10;0.10;;;;;;;;;;4993332;28;20051;-87
2024/01/01 05:38:28;;;;;;;0.10;0.10;;;;;;;;;;4977314;28;20042;-87
2024/01/01 05:40:54;;;;;;;0.10;0.10;;;;;;;;;;4977165;28;20389;-87
2024/01/01 05:43:23;;;;;;;0.10;0.10;;;;;;;;;;4977192;28;20039;-87
2024/01/01 05:45:49;;;;;;;0.10;0.10;;;;;;;;;;4961461;28;20042;-87
2024/01/01 05:48:15;;;;;;;0.30;0.30;;;;;;;;;;4977011;28;20042;-87
2024/01/01 05:50:41;;;;;;;0.10;0.10;;;;;;;;;;4961171;28;20080;-87
2024/01/01 05:53:07;;;;;;;0.20;0.20;;;;;;;;;;4976896;28;20473;-87
2024/01/01 05:55:34;;;;;;;0.10;0.10;;;;;;;;;;4960882;28;20041;-88
2024/01/01 05:58:00;;;;;;;0.10;0.10;;;;;;;;;;4960959;28;20425;-88
2024/01/01 06:00:28;;;;;;;0.25;0.25;;;;;;;;;;4992726;28;20142;-88
2024/01/01 06:02:55;;;;;;;0.10;0.10;;;;;;;;;;4960733;28;20074;-88
2024/01/01 06:05:21;;;;;;;0.10;0.10;;;;;;;;;;4976763;28;20072;-88
2024/01/01 06:07:47;;;;;;;0.10;0.10;;;;;;;;;;4976731;28;20125;-88
2024/01/01 06:10:13;;;;;;;0.10;0.10;;;;;;;;;;4960842;28;20183;-87
2024/01/01 06:12:39;;;;;;;0.10;0.10;;;;;;;;;;4976542;28;20082;-88
2024/01/01 06:15:05;;;;;;;0.10;0.10;;;;;;;;;;4976600;28;20045;-88
2024/01/01 06:17:31;;;;;;;0.10;0.10;;;;;;;;;;4976464;28;20038;-87
2024/01/01 06:19:57;;;;;;;0.10;0.10;;;;;;;;;;4976379;28;20039;-87
2024/01/01 06:22:24;;;;;;;0.10;0.10;;;;;;;;;;4992637;28;20050;-87
2024/01/01 06:24:50;;;;;;;0.10;0.10;;;;;;;;;;4960221;28;20049;-87
2024/01/01 06:27:16;;;;;;;0.10;0.10;;;;;;;;;;4976558;28;20050;-87
2024/01/01 06:29:42;;;;;;;0.32;0.32;;;;;;;;;;4960319;28;20097;-88
2024/01/01 06:32:08;;;;;;;0.10;0.10;;;;;;;;;;4959796;28;20054;-88
2024/01/01 06:34:34;;;;;;;0.10;0.10;;;;;;;;;;4976241;28;20117;-88
2024/01/01 06:37:00;;;;;;;10.52;0.47;;;;;;;;;;4976107;28;20049;-88
2024/01/01 06:39:26;;;;;;;0.10;0.10;;;;;;;;;;4960067;28;20058;-88
2024/01/01 06:41:52;;;;;;;0.20;0.20;;;;;;;;;;4960275;28;20049;-87
2024/01/01 06:44:18;;;;;;;0.10;0.10;;;;;;;;;;4959989;28;20506;-87
2024/01/01 06:46:44;;;;;;;0.10;0.10;;;;;;;;;;4976278;28;20085;-88
2024/01/01 06:49:10;;;;;;;0.10;0.10;;;;;;;;;;4960060;28;20536;-88
2024/01/01 06:51:36;;;;;;;0.10;0.10;;;;;;;;;;4991886;28;20092;-87
2024/01/01 06:54:02;;;;;;;0.10;0.10;;;;;;;;;;4959682;28;20035;-87
2024/01/01 06:56:28;;;;;;;0.10;0.10;;;;;;;;;;4975825;28;20049;-87
2024/01/01 06:58:54;;;;;;;0.10;0.10;;;;;;;;;;4991946;28;20050;-87
2024/01/01 07:01:20;;;;;;;0.10;0.10;;;;;;;;;;4975825;28;20153;-87
2024/01/01 07:03:46;;;;;;;0.10;0.10;;;;;;;;;;4975828;28;20118;-87
2024/01/01 07:06:12;;;;;;;0.10;0.10;;;;;;;;;;4975701;28;20046;-87
2024/01/01 07:08:38;;;;;;;0.10;0.10;;;;;;;;;;4959489;28;20383;-87
2024/01/01 07:11:04;;;;;;;0.10;0.10;;;;;;;;;;4975580;28;20042;-87
2024/01/01 07:13:30;;;;;;;0.10;0.10;;;;;;;;;;4959073;28;20042;-87
2024/01/01 07:15:58;;;;;;;0.10;0.10;;;;;;;;;;4975686;28;20451;-87
2024/01/01 07:18:24;;;;;;;0.10;0.10;;;;;;;;;;4975765;28;20039;-87
2024/01/01 07:20:51;;;;;;;0.10;0.10;;;;;;;;;;4959418;28;20375;-87
2024/01/01 07:23:17;;;;;;;0.10;0.10;;;;;;;;;;4975688;28;20425;-87
2024/01/01 07:25:43;;;;;;;0.17;0.17;;;;;;;;;;4975522;28;20042;-88
2024/01/01 07:28:09;;;;;;;1.35;0.40;;;;;;;;;;4959382;28;20383;-88
2024/01/01 07:30:35;;;;;;;0.10;0.10;;;;;;;;;;4991163;28;20063;-88
2024/01/01 07:33:01;;;;;;;0.10;0.10;;;;;;;;;;4976019;28;20054;-87
2024/01/01 07:35:27;;;;;;;0.10;0.10;;;;;;;;;;4991420;28;20173;-88
2024/01/01 07:37:54;;;;;;;0.10;0.10;;;;;;;;;;4975431;28;20038;-87
2024/01/01 07:40:20;;;;;;;0.10;0.10;;;;;;;;;;4975384;28;20040;-87
2024/01/01 07:42:46;;;;;;;0.10;0.10;;;;;;;;;;4975537;28;20050;-87
2024/01/01 07:45:12;;;;;;;0.10;0.10;;;;;;;;;;4974756;28;20046;-86
2024/01/01 07:47:38;;;;;;;0.10;0.10;;;;;;;;;;4959183;28;20050;-87
2024/01/01 07:50:06;;;;;;;0.10;0.10;;;;;;;;;;4991179;28;20051;-87
2024/01/01 07:52:32;;;;;;;0.15;0.15;;;;;;;;;;4959330;28;20089;-86
2024/01/01 07:54:58;;;;;;;0.10;0.10;;;;;;;;;;4959007;28;20050;-87
2024/01/01 07:57:25;;;;;;;0.10;0.10;;;;;;;;;;4975155;28;20042;-86
2024/01/01 07:59:55;;;;;;;0.20;0.20;;;;;;;;;;4958998;28;20074;-85
2024/01/01 08:02:21;;;;;;;0.10;0.10;;;;;;;;;;4975792;28;20050;-87
2024/01/01 08:04:47;;;;;;;0.10;0.10;;;;;;;;;;4959149;28;20050;-86
2024/01/01 08:07:13;;;;;;;0.10;0.10;;;;;;;;;;4975103;28;20490;-88
2024/01/01 08:09:39;;;;;;;0.10;0.10;;;;;;;;;;4975150;28;20413;-87
2024/01/01 08:12:06;;;;;;;0.10;0.10;;;;;;;;;;4974776;28;20052;-87
2024/01/01 08:14:33;;;;;;;0.10;0.10;;;;;;;;;;4975649;28;20386;-87
2024/01/01 08:16:59;;;;;;;0.10;0.10;;;;;;;;;;4959035;28;20041;-87
2024/01/01 08:19:25;;;;;;;0.15;0.15;;;;;;;;;;4975160;28;20118;-87
2024/01/01 08:21:51;;;;;;;0.10;0.10;;;;;;;;;;4958966;28;20038;-88
2024/01/01 08:24:17;;;;;;;0.10;0.10;;;;;;;;;;4975659;28;20042;-86
2024/01/01 08:26:43;;;;;;;0.10;0.10;;;;;;;;;;4962452;28;20046;-87
2024/01/01 08:29:09;;;;;;;0.10;0.10;;;;;;;;;;4978483;28;20133;-88
2024/01/01 08:31:35;;;;;;;0.10;0.10;;;;;;;;;;4962088;28;20058;-86
2024/01/01 08:34:02;;;;;;;0.10;0.10;;;;;;;;;;4962286;28;20054;-87
2024/01/01 08:36:28;;;;;;;0.10;0.10;;;;;;;;;;4978399;28;20059;-87
2024/01/01 08:38:54;;;;;;;0.10;0.10;;;;;;;;;;4962309;28;20038;-87
2024/01/01 08:41:20;;;;;;;0.10;0.10;;;;;;;;;;4962067;28;20050;-88
2024/01/01 08:43:50;;;;;;;0.10;0.10;;;;;;;;;;4962454;28;20127;-89
2024/01/01 08:46:17;;;;;;;0.10;0.10;;;;;;;;;;4962746;28;20452;-89
2024/01/01 08:48:44;;;;;;;0.10;0.10;;;;;;;;;;4963679;28;20312;-88
2024/01/01 08:51:10;;;;;;;0.10;0.10;;;;;;;;;;4978118;28;20122;-90
2024/01/01 08:53:36;;;;;;;0.10;0.10;;;;;;;;;;4961910;28;20054;-88
2024/01/01 08:56:02;;;;;;;0.10;0.10;;;;;;;;;;4994077;28;20038;-88
2024/01/01 08:58:30;;;;;;;0.10;0.10;;;;;;;;;;4978234;28;20042;-88
2024/01/01 09:00:56;;;;;;;0.10;0.10;;;;;;;;;;4994171;28;20073;-87
2024/01/01 09:03:22;;;;;;;0.10;0.10;;;;;;;;;;4961941;28;20125;-88
2024/01/01 09:05:48;;;;;;;0.10;0.10;;;;;;;;;;4961814;28;20465;-88
2024/01/01 09:08:14;;;;;;;0.10;0.10;;;;;;;;;;4977876;28;20049;-87
2024/01/01 09:10:40;;;;;;;0.10;0.10;;;;;;;;;;4961672;28;20421;-86
2024/01/01 09:13:07;;;;;;;0.10;0.10;;;;;;;;;;4977630;28;20049;-87
2024/01/01 09:15:33;;;;;;;0.10;0.10;;;;;;;;;;4961937;28;20044;-89
2024/01/01 09:18:00;;;;;;;0.10;0.10;;;;;;;;;;4961769;28;20042;-88
2024/01/01 09:20:26;;;;;;;0.10;0.10;;;;;;;;;;4978154;28;20050;-91
2024/01/01 09:22:53;;;;;;;0.10;0.10;;;;;;;;;;4961752;28;20077;-88
2024/01/01 09:25:19;;;;;;;0.10;0.10;;;;;;;;;;4961498;28;20046;-87
2024/01/01 09:27:45;;;;;;;0.10;0.10;;;;;;;;;;4961312;28;20042;-87
2024/01/01 09:30:12;;;;;;;0.20;0.20;;;;;;;;;;4961249;28;20090;-87
2024/01/01 09:32:38;;;;;;;0.10;0.10;;;;;;;;;;4993727;28;20125;-87
2024/01/01 09:35:04;;;;;;;0.10;0.10;;;;;;;;;;4977438;28;20077;-88
2024/01/01 09:37:30;;;;;;;0.10;0.10;;;;;;;;;;4961078;28;20081;-88
2024/01/01 09:39:56;;;;;;;0.10;0.10;;;;;;;;;;4977719;28;20450;-88
2024/01/01 09:42:22;;;;;;;0.10;0.10;;;;;;;;;;4961808;28;20125;-90
2024/01/01 09:44:53;;;;;;;0.10;0.10;;;;;;;;;;4962113;28;20128;-90
2024/01/01 09:47:19;;;;;;;0.20;0.20;;;;;;;;;;4962874;28;20424;-89
2024/01/01 09:49:45;;;;;;;0.10;0.10;;;;;;;;;;4961667;28;20085;-88
2024/01/01 09:52:12;;;;;;;0.10;0.10;;;;;;;;;;4960598;28;20053;-88
2024/01/01 09:54:39;;;;;;;0.10;0.10;;;;;;;;;;4977107;28;20528;-88
2024/01/01 09:57:05;;;;;;;0.10;0.10;;;;;;;;;;4960867;28;20469;-89
2024/01/01 09:59:37;;;;;;;0.10;0.10;;;;;;;;;;4961504;28;20106;-88
2024/01/01 10:02:04;;;;;;;;;;;;;;;;;;4961263;28;20042;-88
2024/01/01 10:04:30;;;;;;;0.10;0.10;;;;;;;;;;4976591;28;20425;-88
2024/01/01 10:06:58;;;;;;;0.10;0.10;;;;;;;;;;4977059;28;20052;-89
2024/01/01 10:09:24;;;;;;;0.10;0.10;;;;;;;;;;4992901;28;20054;-87
2024/01/01 10:11:50;;;;;;;0.10;0.10;;;;;;;;;;4960436;28;20061;-88
2024/01/01 10:14:16;;;;;;;0.10;0.10;;;;;;;;;;4976443;28;20486;-87
2024/01/01 10:16:42;;;;;;;0.65;0.28;;;;;;;;;;4976498;28;20046;-88
2024/01/01 10:19:08;;;;;;;0.10;0.10;;;;;;;;;;4976751;28;20548;-88
2024/01/01 10:21:35;;;;;;;0.20;0.20;;;;;;;;;;4960565;28;20038;-90
2024/01/01 10:24:15;;;;;;;0.10;0.10;;;;;;;;;;4961269;28;20438;-90
2024/01/01 10:29:39;;;;;;;0.10;0.10;;;;;;;;;;4980716;28;20054;-90
2024/01/01 10:32:06;;;;;;;0.10;0.10;;;;;;;;;;4961051;28;20141;-91
2024/01/01 10:34:32;;;;;;;0.10;0.10;;;;;;;;;;4961310;28;20090;-92
2024/01/01 10:36:58;;;;;;;0.10;0.10;;;;;;;;;;4978880;28;20039;-91
2024/01/01 10:39:24;;;;;;;0.10;0.10;;;;;;;;;;4980886;28;20228;-92
2024/01/01 10:41:50;;;;;;;0.10;0.10;;;;;;;;;;4979917;28;20221;-89
2024/01/01 10:44:17;;;;;;;0.10;0.10;;;;;;;;;;4980900;28;20363;-89
2024/01/01 10:46:45;;;;;;;0.10;0.10;;;;;;;;;;4976344;28;20042;-90
2024/01/01 10:49:14;;;;;;;0.10;0.10;;;;;;;;;;4959841;28;20206;-90
2024/01/01 10:51:52;;;;;;;0.20;0.20;;;;;;;;;;4977016;28;20125;-90
2024/01/01 10:54:30;;;;;;;0.20;0.20;;;;;;;;;;4990770;28;20517;-89
2024/01/01 10:57:12;;;;;;;0.10;0.10;;;;;;;;;;4976916;28;20049;-90
2024/01/01 10:59:45;;;;;;;0.10;0.10;;;;;;;;;;4981439;28;20397;-89
2024/01/01 11:02:11;;;;;;;1.23;1.23;;;;;;;;;;4983068;28;20035;-89
2024/01/01 11:04:37;;;;;;;0.10;0.10;;;;;;;;;;4962229;28;20049;-90
2024/01/01 11:07:04;;;;;;;0.10;0.10;;;;;;;;;;4975543;28;20034;-88
2024/01/01 11:09:32;;;;;;;0.10;0.10;;;;;;;;;;4960259;28;20034;-89
2024/01/01 11:12:00;;;;;;;0.10;0.10;;;;;;;;;;4960589;28;20125;-90
2024/01/01 11:14:34;;;;;;;0.10;0.10;;;;;;;;;;4960199;28;20049;-90
2024/01/01 11:17:06;;;;;;;0.10;0.10;;;;;;;;;;4960508;28;20034;-89
2024/01/01 11:19:36;;;;;;;0.10;0.10;;;;;;;;;;4960137;28;20069;-87
2024/01/01 11:22:20;;;;;;;0.10;0.10;;;;;;;;;;4960954;28;20430;-90
2024/01/01 11:24:50;;;;;;;0.10;0.10;;;;;;;;;;4975825;28;20096;-89
2024/01/01 11:27:31;;;;;;;0.10;0.10;;;;;;;;;;4975717;28;20522;-89
2024/01/01 11:30:07;;;;;;;0.10;0.10;;;;;;;;;;4959631;28;20038;-90
2024/01/01 11:32:34;;;;;;;0.10;0.10;;;;;;;;;;4959555;28;20046;-90
2024/01/01 11:35:07;;;;;;;0.10;0.10;;;;;;;;;;4959967;28;20038;-90
2024/01/01 11:37:34;;;;;;;0.10;0.10;;;;;;;;;;4959940;28;20453;-90
2024/01/01 11:40:00;;;;;;;0.10;0.10;;;;;;;;;;4960300;28;20129;-91
2024/01/01 11:42:26;;;;;;;0.10;0.10;;;;;;;;;;4960111;28;20049;-89
2024/01/01 11:45:04;;;;;;;0.10;0.10;;;;;;;;;;4975923;28;20082;-90
2024/01/01 11:50:41;;;;;;;0.10;0.10;;;;;;;;;;4994244;28;20088;-91
2024/01/01 11:53:07;;;;;;;2.17;0.50;;;;;;;;;;4960074;28;20049;-91
2024/01/01 11:55:33;;;;;;;0.10;0.10;;;;;;;;;;4960243;28;20039;-91
2024/01/01 11:57:59;;;;;;;0.10;0.10;;;;;;;;;;4960337;28;20049;-92
2024/01/01 12:00:26;;;;;;;0.10;0.10;;;;;;;;;;4958200;28;20042;-91
2024/01/01 12:02:52;;;;;;;0.10;0.10;;;;;;;;;;4968185;28;20043;-90
2024/01/01 12:05:21;;;;;;;0.10;0.10;;;;;;;;;;4963109;28;20038;-89
2024/01/01 12:07:47;;;;;;;0.10;0.10;;;;;;;;;;4979132;28;20513;-89
2024/01/01 12:10:16;;;;;;;0.20;0.20;;;;;;;;;;4962465;28;20073;-90
2024/01/01 12:12:43;;;;;;;0.10;0.10;;;;;;;;;;4962914;28;20039;-89
2024/01/01 12:15:13;;;;;;;0.20;0.20;;;;;;;;;;4963291;28;20101;-94
2024/01/01 12:17:40;;;;;;;0.10;0.10;;;;;;;;;;4981602;28;20038;-91
2024/01/01 12:20:10;;;;;;;0.10;0.10;;;;;;;;;;4962999;28;20132;-93
2024/01/01 12:22:36;;;;;;;0.10;0.10;;;;;;;;;;4967380;28;20046;-93
2024/01/01 12:25:02;;;;;;;0.15;0.15;;;;;;;;;;4968131;28;20034;-89
2024/01/01 12:27:28;;;;;;;0.10;0.10;;;;;;;;;;4982041;28;20133;-92
2024/01/01 12:29:57;;;;;;;0.10;0.10;;;;;;;;;;4980596;28;20045;-88
2024/01/01 12:32:23;;;;;;;0.10;0.10;;;;;;;;;;4998029;28;20061;-89
2024/01/01 12:34:51;;;;;;;0.17;0.17;;;;;;;;;;4981965;28;20049;-88
2024/01/01 12:37:17;;;;;;;0.10;0.10;;;;;;;;;;4982159;28;20432;-89
2024/01/01 12:39:43;;;;;;;0.10;0.10;;;;;;;;;;4981685;28;20042;-88
2024/01/01 12:42:09;;;;;;;0.10;0.10;;;;;;;;;;4981710;28;20084;-89
2024/01/01 12:44:36;;;;;;;0.10;0.10;;;;;;;;;;4981669;28;20049;-89
2024/01/01 12:47:02;;;;;;;0.10;0.10;;;;;;;;;;4998088;28;20489;-90
2024/01/01 12:49:30;;;;;;;1.00;0.20;;;;;;;;;;4982166;28;20394;-89
2024/01/01 12:51:57;;;;;;;2.13;0.20;;;;;;;;;;4998516;28;20096;-89
2024/01/01 12:54:23;;;;;;;0.10;0.10;;;;;;;;;;4981608;28;20404;-90
2024/01/01 12:56:49;;;;;;;0.10;0.10;;;;;;;;;;4981866;28;20112;-88
2024/01/01 12:59:15;;;;;;;0.20;0.20;;;;;;;;;;4981834;28;20042;-90
2024/01/01 13:01:41;;;;;;;0.10;0.10;;;;;;;;;;4997802;28;20042;-90
2024/01/01 13:04:08;;;;;;;0.10;0.10;;;;;;;;;;4981978;28;20045;-90
2024/01/01 13:06:34;;;;;;;0.10;0.10;;;;;;;;;;4981918;28;20046;-90
2024/01/01 13:09:00;;;;;;;0.10;0.10;;;;;;;;;;4981832;28;20042;-91
2024/01/01 13:11:26;;;;;;;0.10;0.10;;;;;;;;;;4980754;28;20046;-90
2024/01/01 13:13:52;;;;;;;0.10;0.10;;;;;;;;;;4980804;28;20500;-90
2024/01/01 13:16:18;;;;;;;0.10;0.10;;;;;;;;;;4997211;28;20045;-90
2024/01/01 13:18:44;;;;;;;0.10;0.10;;;;;;;;;;4980981;28;20042;-89
2024/01/01 13:21:10;;;;;;;4.30;0.50;;;;;;;;;;4981088;28;20048;-88
2024/01/01 13:23:37;;;;;;;0.10;0.10;;;;;;;;;;4997193;28;20042;-89
2024/01/01 13:26:03;;;;;;;0.10;0.10;;;;;;;;;;4981084;28;20045;-88
2024/01/01 13:28:30;;;;;;;0.10;0.10;;;;;;;;;;4997134;28;20123;-89
2024/01/01 13:30:57;;;;;;;0.10;0.10;;;;;;;;;;4997150;28;20058;-92
2024/01/01 13:33:23;;;;;;;0.10;0.10;;;;;;;;;;4981393;28;20049;-88
2024/01/01 13:35:49;;;;;;;0.10;0.10;;;;;;;;;;4980620;28;20037;-90
2024/01/01 13:38:15;;;;;;;0.10;0.10;;;;;;;;;;5012884;28;20045;-88
2024/01/01 13:40:41;;;;;;;0.10;0.10;;;;;;;;;;4980446;28;20042;-89
2024/01/01 13:43:10;;;;;;;0.10;0.10;;;;;;;;;;4996552;28;20080;-88
2024/01/01 13:45:40;;;;;;;0.10;0.10;;;;;;;;;;4997032;28;20092;-90
2024/01/01 13:48:12;;;;;;;0.10;0.10;;;;;;;;;;4996653;28;20057;-90
2024/01/01 13:50:44;;;;;;;0.10;0.10;;;;;;;;;;4997182;28;20045;-90
2024/01/01 13:53:10;;;;;;;0.10;0.10;;;;;;;;;;4997273;28;20390;-90
2024/01/01 13:55:36;;;;;;;0.10;0.10;;;;;;;;;;4996746;28;20049;-90
2024/01/01 13:58:05;;;;;;;0.13;0.13;;;;;;;;;;4980377;28;20034;-90
2024/01/01 14:00:31;;;;;;;0.10;0.10;;;;;;;;;;4996881;28;20041;-89
2024/01/01 14:02:58;;;;;;;0.10;0.10;;;;;;;;;;4996468;28;20180;-88
2024/01/01 14:05:24;;;;;;;0.10;0.10;;;;;;;;;;4980522;28;20045;-89
2024/01/01 14:07:50;;;;;;;0.10;0.10;;;;;;;;;;4996539;28;20046;-89
2024/01/01 14:10:18;;;;;;;0.10;0.10;;;;;;;;;;4980289;28;20232;-89
2024/01/01 14:12:44;;;;;;;0.10;0.10;;;;;;;;;;4996484;28;20128;-88
2024/01/01 14:15:10;;;;;;;0.10;0.10;;;;;;;;;;4996295;28;20048;-89
2024/01/01 14:17:36;;;;;;;0.10;0.10;;;;;;;;;;4980081;28;20478;-90
2024/01/01 14:20:04;;;;;;;0.10;0.10;;;;;;;;;;4979949;28;20493;-89
2024/01/01 14:22:30;;;;;;;0.70;0.20;;;;;;;;;;4979344;28;20500;-89
2024/01/01 14:24:56;;;;;;;0.10;0.10;;;;;;;;;;4995937;28;20042;-89
2024/01/01 14:27:22;;;;;;;0.20;0.20;;;;;;;;;;4979960;28;20125;-89
2024/01/01 14:29:49;;;;;;;0.10;0.10;;;;;;;;;;4995814;28;20128;-88
2024/01/01 14:32:15;;;;;;;0.10;0.10;;;;;;;;;;4979904;28;20102;-89
2024/01/01 14:34:41;;;;;;;0.10;0.10;;;;;;;;;;4980234;28;20477;-88
2024/01/01 14:37:07;;;;;;;0.20;0.20;;;;;;;;;;4979564;28;20042;-90
2024/01/01 14:39:36;;;;;;;0.10;0.10;;;;;;;;;;4995592;28;20512;-88
2024/01/01 14:42:06;;;;;;;0.20;0.20;;;;;;;;;;4996653;28;20049;-90
2024/01/01 14:44:32;;;;;;;0.10;0.10;;;;;;;;;;4980389;28;20037;-92
2024/01/01 14:46:59;;;;;;;0.10;0.10;;;;;;;;;;4980498;28;20048;-93